sensor_id;sensor_type;location;lat;lon;timestamp;P1;durP1;ratioP1;P2;durP2;ratioP2
29384;SDS011;16367;48.736;9.218;2023-04-03T00:00:56;6.47;;;2.38;;
29384;SDS011;16367;48.736;9.218;2023-04-03T00:02:59;5.00;;;2.45;;
29384;SDS011;16367;48.736;9.218;2023-04-03T00:05:02;5.78;;;2.45;;
29384;SDS011;16367;48.736;9.218;2023-04-03T00:07:07;6.20;;;2.42;;
29384;SDS011;16367;48.736;9.218;2023-04-03T00:09:09;6.15;;;2.63;;
29384;SDS011;16367;48.736;9.218;2023-04-03T00:11:12;4.68;;;2.20;;
29384;SDS011;16367;48.736;9.218;2023-04-03T00:13:15;6.30;;;2.60;;
29384;SDS011;16367;48.736;9.218;2023-04-03T00:15:18;6.15;;;2.90;;
29384;SDS011;16367;48.736;9.218;2023-04-03T00:17:20;5.88;;;2.72;;
29384;SDS011;16367;48.736;9.218;2023-04-03T00:19:23;6.43;;;2.47;;
29384;SDS011;16367;48.736;9.218;2023-04-03T00:21:26;4.85;;;2.20;;
29384;SDS011;16367;48.736;9.218;2023-04-03T00:23:30;6.30;;;2.70;;
29384;SDS011;16367;48.736;9.218;2023-04-03T00:25:32;5.00;;;2.28;;
29384;SDS011;16367;48.736;9.218;2023-04-03T00:27:35;5.22;;;2.50;;
29384;SDS011;16367;48.736;9.218;2023-04-03T00:29:39;5.38;;;2.42;;
29384;SDS011;16367;48.736;9.218;2023-04-03T00:31:41;7.20;;;2.40;;
29384;SDS011;16367;48.736;9.218;2023-04-03T00:33:44;6.40;;;2.50;;
29384;SDS011;16367;48.736;9.218;2023-04-03T00:35:47;6.90;;;2.53;;
29384;SDS011;16367;48.736;9.218;2023-04-03T00:37:50;7.43;;;2.92;;
29384;SDS011;16367;48.736;9.218;2023-04-03T00:39:55;7.32;;;2.50;;
29384;SDS011;16367;48.736;9.218;2023-04-03T00:41:58;7.10;;;2.67;;
29384;SDS011;16367;48.736;9.218;2023-04-03T00:44:00;6.20;;;2.60;;
29384;SDS011;16367;48.736;9.218;2023-04-03T00:46:03;5.38;;;2.40;;
29384;SDS011;16367;48.736;9.218;2023-04-03T00:48:06;7.63;;;3.00;;
29384;SDS011;16367;48.736;9.218;2023-04-03T00:50:12;5.25;;;2.25;;
29384;SDS011;16367;48.736;9.218;2023-04-03T00:52:16;6.60;;;2.30;;
29384;SDS011;16367;48.736;9.218;2023-04-03T00:54:21;5.78;;;2.60;;
29384;SDS011;16367;48.736;9.218;2023-04-03T00:56:25;6.72;;;2.55;;
29384;SDS011;16367;48.736;9.218;2023-04-03T00:58:32;6.25;;;2.40;;
29384;SDS011;16367;48.736;9.218;2023-04-03T01:00:40;5.57;;;2.20;;
29384;SDS011;16367;48.736;9.218;2023-04-03T01:02:47;4.43;;;2.15;;
29384;SDS011;16367;48.736;9.218;2023-04-03T01:04:49;5.75;;;2.58;;
29384;SDS011;16367;48.736;9.218;2023-04-03T01:06:52;5.97;;;2.58;;
29384;SDS011;16367;48.736;9.218;2023-04-03T01:08:57;5.38;;;2.58;;
29384;SDS011;16367;48.736;9.218;2023-04-03T01:11:00;5.03;;;2.45;;
29384;SDS011;16367;48.736;9.218;2023-04-03T01:13:08;6.47;;;2.60;;
29384;SDS011;16367;48.736;9.218;2023-04-03T01:15:21;6.30;;;2.70;;
29384;SDS011;16367;48.736;9.218;2023-04-03T01:17:26;5.68;;;2.53;;
29384;SDS011;16367;48.736;9.218;2023-04-03T01:19:30;7.15;;;2.78;;
29384;SDS011;16367;48.736;9.218;2023-04-03T01:21:46;6.82;;;3.47;;
29384;SDS011;16367;48.736;9.218;2023-04-03T01:24:08;6.15;;;2.92;;
29384;SDS011;16367;48.736;9.218;2023-04-03T01:26:19;5.20;;;2.90;;
29384;SDS011;16367;48.736;9.218;2023-04-03T01:28:24;6.45;;;2.42;;
29384;SDS011;16367;48.736;9.218;2023-04-03T01:30:30;5.57;;;2.42;;
29384;SDS011;16367;48.736;9.218;2023-04-03T01:32:37;7.03;;;2.63;;
29384;SDS011;16367;48.736;9.218;2023-04-03T01:34:40;6.82;;;2.35;;
29384;SDS011;16367;48.736;9.218;2023-04-03T01:36:42;4.50;;;2.05;;
29384;SDS011;16367;48.736;9.218;2023-04-03T01:38:45;5.13;;;2.20;;
29384;SDS011;16367;48.736;9.218;2023-04-03T01:40:48;6.38;;;2.33;;
29384;SDS011;16367;48.736;9.218;2023-04-03T01:42:50;5.88;;;2.58;;
29384;SDS011;16367;48.736;9.218;2023-04-03T01:44:53;6.32;;;2.78;;
29384;SDS011;16367;48.736;9.218;2023-04-03T01:46:55;6.05;;;2.40;;
29384;SDS011;16367;48.736;9.218;2023-04-03T01:49:00;7.72;;;2.53;;
29384;SDS011;16367;48.736;9.218;2023-04-03T01:51:03;5.53;;;2.78;;
29384;SDS011;16367;48.736;9.218;2023-04-03T01:53:05;6.57;;;2.45;;
29384;SDS011;16367;48.736;9.218;2023-04-03T01:55:08;7.60;;;2.90;;
29384;SDS011;16367;48.736;9.218;2023-04-03T01:57:11;5.78;;;2.60;;
29384;SDS011;16367;48.736;9.218;2023-04-03T01:59:14;5.97;;;2.72;;
29384;SDS011;16367;48.736;9.218;2023-04-03T02:01:19;4.72;;;2.50;;
29384;SDS011;16367;48.736;9.218;2023-04-03T02:03:22;5.68;;;2.50;;
29384;SDS011;16367;48.736;9.218;2023-04-03T02:05:26;5.53;;;2.50;;
29384;SDS011;16367;48.736;9.218;2023-04-03T02:07:29;5.97;;;2.90;;
29384;SDS011;16367;48.736;9.218;2023-04-03T02:09:32;6.22;;;2.42;;
29384;SDS011;16367;48.736;9.218;2023-04-03T02:11:34;6.78;;;2.65;;
29384;SDS011;16367;48.736;9.218;2023-04-03T02:13:37;5.65;;;2.55;;
29384;SDS011;16367;48.736;9.218;2023-04-03T02:15:40;6.35;;;3.00;;
29384;SDS011;16367;48.736;9.218;2023-04-03T02:17:43;4.80;;;2.28;;
29384;SDS011;16367;48.736;9.218;2023-04-03T02:19:46;6.22;;;2.72;;
29384;SDS011;16367;48.736;9.218;2023-04-03T02:21:50;6.00;;;2.33;;
29384;SDS011;16367;48.736;9.218;2023-04-03T02:23:52;5.95;;;2.53;;
29384;SDS011;16367;48.736;9.218;2023-04-03T02:26:02;6.10;;;2.70;;
29384;SDS011;16367;48.736;9.218;2023-04-03T02:28:08;7.80;;;2.33;;
29384;SDS011;16367;48.736;9.218;2023-04-03T02:30:11;8.20;;;3.05;;
29384;SDS011;16367;48.736;9.218;2023-04-03T02:32:15;5.40;;;2.50;;
29384;SDS011;16367;48.736;9.218;2023-04-03T02:34:18;5.28;;;2.35;;
29384;SDS011;16367;48.736;9.218;2023-04-03T02:36:21;5.90;;;2.63;;
29384;SDS011;16367;48.736;9.218;2023-04-03T02:38:25;6.28;;;2.75;;
29384;SDS011;16367;48.736;9.218;2023-04-03T02:40:28;5.40;;;2.60;;
29384;SDS011;16367;48.736;9.218;2023-04-03T02:42:30;4.90;;;2.20;;
29384;SDS011;16367;48.736;9.218;2023-04-03T02:44:33;5.10;;;2.30;;
29384;SDS011;16367;48.736;9.218;2023-04-03T02:46:36;5.68;;;2.42;;
29384;SDS011;16367;48.736;9.218;2023-04-03T02:48:39;5.53;;;2.47;;
29384;SDS011;16367;48.736;9.218;2023-04-03T02:50:42;5.93;;;2.55;;
29384;SDS011;16367;48.736;9.218;2023-04-03T02:52:44;7.93;;;2.80;;
29384;SDS011;16367;48.736;9.218;2023-04-03T02:54:48;6.50;;;2.45;;
29384;SDS011;16367;48.736;9.218;2023-04-03T02:56:51;5.60;;;2.55;;
29384;SDS011;16367;48.736;9.218;2023-04-03T02:58:54;6.95;;;2.20;;
29384;SDS011;16367;48.736;9.218;2023-04-03T03:00:56;6.53;;;3.38;;
29384;SDS011;16367;48.736;9.218;2023-04-03T03:02:59;5.32;;;2.33;;
29384;SDS011;16367;48.736;9.218;2023-04-03T03:05:02;5.15;;;2.55;;
29384;SDS011;16367;48.736;9.218;2023-04-03T03:07:05;7.30;;;3.05;;
29384;SDS011;16367;48.736;9.218;2023-04-03T03:09:08;5.80;;;2.40;;
29384;SDS011;16367;48.736;9.218;2023-04-03T03:11:12;4.90;;;2.30;;
29384;SDS011;16367;48.736;9.218;2023-04-03T03:13:15;5.63;;;2.55;;
29384;SDS011;16367;48.736;9.218;2023-04-03T03:15:17;5.90;;;2.70;;
29384;SDS011;16367;48.736;9.218;2023-04-03T03:17:20;7.45;;;2.97;;
29384;SDS011;16367;48.736;9.218;2023-04-03T03:19:23;6.65;;;2.83;;
29384;SDS011;16367;48.736;9.218;2023-04-03T03:21:26;5.53;;;2.50;;
29384;SDS011;16367;48.736;9.218;2023-04-03T03:23:29;6.40;;;2.58;;
29384;SDS011;16367;48.736;9.218;2023-04-03T03:25:37;5.97;;;2.40;;
29384;SDS011;16367;48.736;9.218;2023-04-03T03:27:41;6.10;;;2.20;;
29384;SDS011;16367;48.736;9.218;2023-04-03T03:29:44;7.38;;;2.60;;
29384;SDS011;16367;48.736;9.218;2023-04-03T03:31:47;5.50;;;2.58;;
29384;SDS011;16367;48.736;9.218;2023-04-03T03:33:50;7.60;;;2.47;;
29384;SDS011;16367;48.736;9.218;2023-04-03T03:35:53;5.78;;;2.67;;
29384;SDS011;16367;48.736;9.218;2023-04-03T03:37:56;6.15;;;2.28;;
29384;SDS011;16367;48.736;9.218;2023-04-03T03:39:59;5.65;;;2.60;;
29384;SDS011;16367;48.736;9.218;2023-04-03T03:42:02;4.80;;;2.05;;
29384;SDS011;16367;48.736;9.218;2023-04-03T03:44:06;5.72;;;3.05;;
29384;SDS011;16367;48.736;9.218;2023-04-03T03:46:09;6.53;;;2.33;;
29384;SDS011;16367;48.736;9.218;2023-04-03T03:48:11;5.43;;;2.20;;
29384;SDS011;16367;48.736;9.218;2023-04-03T03:50:14;5.43;;;2.28;;
29384;SDS011;16367;48.736;9.218;2023-04-03T03:52:17;5.53;;;2.35;;
29384;SDS011;16367;48.736;9.218;2023-04-03T03:54:20;6.35;;;2.63;;
29384;SDS011;16367;48.736;9.218;2023-04-03T03:56:22;4.82;;;2.28;;
29384;SDS011;16367;48.736;9.218;2023-04-03T03:58:25;5.88;;;2.20;;
29384;SDS011;16367;48.736;9.218;2023-04-03T04:00:29;6.18;;;2.70;;
29384;SDS011;16367;48.736;9.218;2023-04-03T04:02:32;8.07;;;2.38;;
29384;SDS011;16367;48.736;9.218;2023-04-03T04:04:35;7.38;;;2.58;;
29384;SDS011;16367;48.736;9.218;2023-04-03T04:06:38;4.47;;;1.90;;
29384;SDS011;16367;48.736;9.218;2023-04-03T04:08:41;4.97;;;2.10;;
29384;SDS011;16367;48.736;9.218;2023-04-03T04:10:44;6.32;;;2.33;;
29384;SDS011;16367;48.736;9.218;2023-04-03T04:12:47;9.07;;;2.33;;
29384;SDS011;16367;48.736;9.218;2023-04-03T04:14:56;5.47;;;2.53;;
29384;SDS011;16367;48.736;9.218;2023-04-03T04:17:00;6.28;;;2.58;;
29384;SDS011;16367;48.736;9.218;2023-04-03T04:19:04;6.28;;;2.70;;
29384;SDS011;16367;48.736;9.218;2023-04-03T04:21:09;4.60;;;2.10;;
29384;SDS011;16367;48.736;9.218;2023-04-03T04:23:11;6.65;;;2.80;;
29384;SDS011;16367;48.736;9.218;2023-04-03T04:25:14;8.10;;;2.75;;
29384;SDS011;16367;48.736;9.218;2023-04-03T04:27:17;6.93;;;2.00;;
29384;SDS011;16367;48.736;9.218;2023-04-03T04:29:19;5.07;;;2.33;;
29384;SDS011;16367;48.736;9.218;2023-04-03T04:31:22;6.03;;;2.60;;
29384;SDS011;16367;48.736;9.218;2023-04-03T04:33:27;4.90;;;2.10;;
29384;SDS011;16367;48.736;9.218;2023-04-03T04:35:29;4.85;;;2.05;;
29384;SDS011;16367;48.736;9.218;2023-04-03T04:37:32;5.35;;;2.42;;
29384;SDS011;16367;48.736;9.218;2023-04-03T04:39:35;4.68;;;2.28;;
29384;SDS011;16367;48.736;9.218;2023-04-03T04:41:37;7.65;;;2.40;;
29384;SDS011;16367;48.736;9.218;2023-04-03T04:43:40;5.68;;;2.40;;
29384;SDS011;16367;48.736;9.218;2023-04-03T04:45:43;5.30;;;2.28;;
29384;SDS011;16367;48.736;9.218;2023-04-03T04:47:46;5.30;;;2.22;;
29384;SDS011;16367;48.736;9.218;2023-04-03T04:49:50;5.20;;;2.35;;
29384;SDS011;16367;48.736;9.218;2023-04-03T04:51:53;4.65;;;2.25;;
29384;SDS011;16367;48.736;9.218;2023-04-03T04:53:55;5.47;;;1.88;;
29384;SDS011;16367;48.736;9.218;2023-04-03T04:55:58;5.47;;;2.08;;
29384;SDS011;16367;48.736;9.218;2023-04-03T04:58:01;4.70;;;1.80;;
29384;SDS011;16367;48.736;9.218;2023-04-03T05:00:04;4.45;;;2.05;;
29384;SDS011;16367;48.736;9.218;2023-04-03T05:02:08;4.32;;;2.00;;
29384;SDS011;16367;48.736;9.218;2023-04-03T05:04:11;5.88;;;2.30;;
29384;SDS011;16367;48.736;9.218;2023-04-03T05:06:15;6.05;;;2.30;;
29384;SDS011;16367;48.736;9.218;2023-04-03T05:08:18;5.55;;;2.13;;
29384;SDS011;16367;48.736;9.218;2023-04-03T05:10:21;4.53;;;2.10;;
29384;SDS011;16367;48.736;9.218;2023-04-03T05:12:24;5.35;;;2.10;;
29384;SDS011;16367;48.736;9.218;2023-04-03T05:14:26;6.00;;;2.10;;
29384;SDS011;16367;48.736;9.218;2023-04-03T05:16:29;5.05;;;2.08;;
29384;SDS011;16367;48.736;9.218;2023-04-03T05:18:32;5.25;;;2.05;;
29384;SDS011;16367;48.736;9.218;2023-04-03T05:20:35;4.93;;;2.20;;
29384;SDS011;16367;48.736;9.218;2023-04-03T05:22:39;4.75;;;2.13;;
29384;SDS011;16367;48.736;9.218;2023-04-03T05:24:42;5.28;;;2.03;;
29384;SDS011;16367;48.736;9.218;2023-04-03T05:26:45;5.70;;;2.03;;
29384;SDS011;16367;48.736;9.218;2023-04-03T05:28:47;5.95;;;2.28;;
29384;SDS011;16367;48.736;9.218;2023-04-03T05:30:52;4.90;;;2.05;;
29384;SDS011;16367;48.736;9.218;2023-04-03T05:32:56;4.63;;;1.90;;
29384;SDS011;16367;48.736;9.218;2023-04-03T05:35:00;4.45;;;2.00;;
29384;SDS011;16367;48.736;9.218;2023-04-03T05:37:03;4.70;;;1.85;;
29384;SDS011;16367;48.736;9.218;2023-04-03T05:39:08;5.03;;;2.15;;
29384;SDS011;16367;48.736;9.218;2023-04-03T05:41:11;5.53;;;2.13;;
29384;SDS011;16367;48.736;9.218;2023-04-03T05:43:14;5.60;;;2.05;;
29384;SDS011;16367;48.736;9.218;2023-04-03T05:45:17;6.22;;;2.28;;
29384;SDS011;16367;48.736;9.218;2023-04-03T05:47:20;4.38;;;1.77;;
29384;SDS011;16367;48.736;9.218;2023-04-03T05:49:22;5.82;;;2.03;;
29384;SDS011;16367;48.736;9.218;2023-04-03T05:51:27;4.88;;;2.45;;
29384;SDS011;16367;48.736;9.218;2023-04-03T05:53:33;4.28;;;1.98;;
29384;SDS011;16367;48.736;9.218;2023-04-03T05:55:39;6.63;;;1.90;;
29384;SDS011;16367;48.736;9.218;2023-04-03T05:57:42;6.13;;;2.33;;
29384;SDS011;16367;48.736;9.218;2023-04-03T05:59:45;4.93;;;2.00;;
29384;SDS011;16367;48.736;9.218;2023-04-03T06:01:48;4.90;;;2.05;;
29384;SDS011;16367;48.736;9.218;2023-04-03T06:03:51;4.65;;;2.17;;
29384;SDS011;16367;48.736;9.218;2023-04-03T06:05:54;5.13;;;2.03;;
29384;SDS011;16367;48.736;9.218;2023-04-03T06:07:57;7.10;;;2.28;;
29384;SDS011;16367;48.736;9.218;2023-04-03T06:09:59;5.65;;;2.38;;
29384;SDS011;16367;48.736;9.218;2023-04-03T06:12:03;4.28;;;1.88;;
29384;SDS011;16367;48.736;9.218;2023-04-03T06:14:06;4.95;;;2.10;;
29384;SDS011;16367;48.736;9.218;2023-04-03T06:16:09;4.82;;;1.98;;
29384;SDS011;16367;48.736;9.218;2023-04-03T06:18:15;5.35;;;2.00;;
29384;SDS011;16367;48.736;9.218;2023-04-03T06:20:18;4.55;;;1.90;;
29384;SDS011;16367;48.736;9.218;2023-04-03T06:22:20;11.07;;;3.22;;
29384;SDS011;16367;48.736;9.218;2023-04-03T06:24:23;5.22;;;2.15;;
29384;SDS011;16367;48.736;9.218;2023-04-03T06:26:26;5.90;;;2.00;;
29384;SDS011;16367;48.736;9.218;2023-04-03T06:28:30;4.53;;;2.05;;
29384;SDS011;16367;48.736;9.218;2023-04-03T06:30:33;5.30;;;2.30;;
29384;SDS011;16367;48.736;9.218;2023-04-03T06:32:36;6.50;;;2.15;;
29384;SDS011;16367;48.736;9.218;2023-04-03T06:34:39;8.85;;;2.22;;
29384;SDS011;16367;48.736;9.218;2023-04-03T06:36:42;5.10;;;2.10;;
29384;SDS011;16367;48.736;9.218;2023-04-03T06:38:46;6.30;;;2.20;;
29384;SDS011;16367;48.736;9.218;2023-04-03T06:40:49;5.70;;;1.77;;
29384;SDS011;16367;48.736;9.218;2023-04-03T06:42:52;5.63;;;2.42;;
29384;SDS011;16367;48.736;9.218;2023-04-03T06:44:57;6.35;;;2.20;;
29384;SDS011;16367;48.736;9.218;2023-04-03T06:47:00;5.13;;;1.98;;
29384;SDS011;16367;48.736;9.218;2023-04-03T06:49:03;7.68;;;2.25;;
29384;SDS011;16367;48.736;9.218;2023-04-03T06:51:11;7.20;;;2.40;;
29384;SDS011;16367;48.736;9.218;2023-04-03T06:53:19;4.75;;;2.38;;
29384;SDS011;16367;48.736;9.218;2023-04-03T06:55:21;6.10;;;2.10;;
29384;SDS011;16367;48.736;9.218;2023-04-03T06:57:24;5.25;;;2.13;;
29384;SDS011;16367;48.736;9.218;2023-04-03T06:59:27;5.55;;;2.00;;
29384;SDS011;16367;48.736;9.218;2023-04-03T07:01:31;5.35;;;1.92;;
29384;SDS011;16367;48.736;9.218;2023-04-03T07:03:34;8.25;;;2.25;;
29384;SDS011;16367;48.736;9.218;2023-04-03T07:05:37;4.28;;;1.88;;
29384;SDS011;16367;48.736;9.218;2023-04-03T07:07:41;5.35;;;2.03;;
29384;SDS011;16367;48.736;9.218;2023-04-03T07:09:43;5.85;;;1.90;;
29384;SDS011;16367;48.736;9.218;2023-04-03T07:11:47;5.50;;;1.95;;
29384;SDS011;16367;48.736;9.218;2023-04-03T07:13:50;4.88;;;1.80;;
29384;SDS011;16367;48.736;9.218;2023-04-03T07:15:53;5.60;;;1.90;;
29384;SDS011;16367;48.736;9.218;2023-04-03T07:17:57;3.88;;;1.73;;
29384;SDS011;16367;48.736;9.218;2023-04-03T07:20:00;5.68;;;2.13;;
29384;SDS011;16367;48.736;9.218;2023-04-03T07:22:02;5.20;;;2.15;;
29384;SDS011;16367;48.736;9.218;2023-04-03T07:24:05;4.20;;;1.88;;
29384;SDS011;16367;48.736;9.218;2023-04-03T07:26:13;5.15;;;2.28;;
29384;SDS011;16367;48.736;9.218;2023-04-03T07:28:16;4.35;;;1.92;;
29384;SDS011;16367;48.736;9.218;2023-04-03T07:30:20;5.90;;;2.00;;
29384;SDS011;16367;48.736;9.218;2023-04-03T07:32:23;6.85;;;2.17;;
29384;SDS011;16367;48.736;9.218;2023-04-03T07:34:27;5.30;;;1.90;;
29384;SDS011;16367;48.736;9.218;2023-04-03T07:36:30;4.90;;;2.05;;
29384;SDS011;16367;48.736;9.218;2023-04-03T07:38:34;4.43;;;2.25;;
29384;SDS011;16367;48.736;9.218;2023-04-03T07:40:38;5.53;;;2.20;;
29384;SDS011;16367;48.736;9.218;2023-04-03T07:42:40;5.70;;;2.05;;
29384;SDS011;16367;48.736;9.218;2023-04-03T07:44:43;4.75;;;2.00;;
29384;SDS011;16367;48.736;9.218;2023-04-03T07:46:46;5.45;;;2.08;;
29384;SDS011;16367;48.736;9.218;2023-04-03T07:48:49;4.20;;;2.05;;
29384;SDS011;16367;48.736;9.218;2023-04-03T07:50:53;4.72;;;2.33;;
29384;SDS011;16367;48.736;9.218;2023-04-03T07:52:56;6.32;;;2.28;;
29384;SDS011;16367;48.736;9.218;2023-04-03T07:54:59;5.05;;;1.90;;
29384;SDS011;16367;48.736;9.218;2023-04-03T07:57:02;5.32;;;2.20;;
29384;SDS011;16367;48.736;9.218;2023-04-03T07:59:05;4.82;;;1.90;;
29384;SDS011;16367;48.736;9.218;2023-04-03T08:01:08;5.00;;;2.00;;
29384;SDS011;16367;48.736;9.218;2023-04-03T08:03:10;4.28;;;2.03;;
29384;SDS011;16367;48.736;9.218;2023-04-03T08:05:14;5.40;;;2.05;;
29384;SDS011;16367;48.736;9.218;2023-04-03T08:07:18;6.38;;;2.20;;
29384;SDS011;16367;48.736;9.218;2023-04-03T08:09:22;6.25;;;2.10;;
29384;SDS011;16367;48.736;9.218;2023-04-03T08:11:24;5.97;;;2.30;;
29384;SDS011;16367;48.736;9.218;2023-04-03T08:13:28;6.15;;;1.90;;
29384;SDS011;16367;48.736;9.218;2023-04-03T08:15:32;4.97;;;2.03;;
29384;SDS011;16367;48.736;9.218;2023-04-03T08:17:35;5.05;;;1.90;;
29384;SDS011;16367;48.736;9.218;2023-04-03T08:19:38;5.00;;;2.10;;
29384;SDS011;16367;48.736;9.218;2023-04-03T08:21:41;5.57;;;2.15;;
29384;SDS011;16367;48.736;9.218;2023-04-03T08:23:47;6.93;;;2.20;;
29384;SDS011;16367;48.736;9.218;2023-04-03T08:25:51;4.82;;;1.88;;
29384;SDS011;16367;48.736;9.218;2023-04-03T08:27:54;6.63;;;1.92;;
29384;SDS011;16367;48.736;9.218;2023-04-03T08:29:57;5.78;;;2.50;;
29384;SDS011;16367;48.736;9.218;2023-04-03T08:31:59;4.90;;;2.20;;
29384;SDS011;16367;48.736;9.218;2023-04-03T08:34:02;4.63;;;1.80;;
29384;SDS011;16367;48.736;9.218;2023-04-03T08:36:05;5.60;;;2.00;;
29384;SDS011;16367;48.736;9.218;2023-04-03T08:38:09;8.40;;;2.00;;
29384;SDS011;16367;48.736;9.218;2023-04-03T08:40:15;9.13;;;2.08;;
29384;SDS011;16367;48.736;9.218;2023-04-03T08:42:20;5.57;;;1.88;;
29384;SDS011;16367;48.736;9.218;2023-04-03T08:44:36;5.55;;;2.20;;
29384;SDS011;16367;48.736;9.218;2023-04-03T08:46:47;6.55;;;2.15;;
29384;SDS011;16367;48.736;9.218;2023-04-03T08:49:01;6.50;;;2.35;;
29384;SDS011;16367;48.736;9.218;2023-04-03T08:51:04;5.03;;;2.13;;
29384;SDS011;16367;48.736;9.218;2023-04-03T08:53:17;6.72;;;2.03;;
29384;SDS011;16367;48.736;9.218;2023-04-03T08:55:24;4.63;;;1.98;;
29384;SDS011;16367;48.736;9.218;2023-04-03T08:57:30;5.60;;;1.77;;
29384;SDS011;16367;48.736;9.218;2023-04-03T08:59:36;5.15;;;2.00;;
29384;SDS011;16367;48.736;9.218;2023-04-03T09:01:41;3.92;;;1.80;;
29384;SDS011;16367;48.736;9.218;2023-04-03T09:03:45;4.55;;;1.90;;
29384;SDS011;16367;48.736;9.218;2023-04-03T09:05:49;4.75;;;1.95;;
29384;SDS011;16367;48.736;9.218;2023-04-03T09:07:56;7.15;;;2.00;;
29384;SDS011;16367;48.736;9.218;2023-04-03T09:10:03;6.30;;;2.25;;
29384;SDS011;16367;48.736;9.218;2023-04-03T09:12:11;4.32;;;1.77;;
29384;SDS011;16367;48.736;9.218;2023-04-03T09:14:21;5.68;;;1.80;;
29384;SDS011;16367;48.736;9.218;2023-04-03T09:16:35;4.68;;;2.03;;
29384;SDS011;16367;48.736;9.218;2023-04-03T09:18:48;5.45;;;1.98;;
29384;SDS011;16367;48.736;9.218;2023-04-03T09:21:01;6.03;;;1.90;;
29384;SDS011;16367;48.736;9.218;2023-04-03T09:23:13;6.43;;;1.73;;
29384;SDS011;16367;48.736;9.218;2023-04-03T09:25:20;4.95;;;2.20;;
29384;SDS011;16367;48.736;9.218;2023-04-03T09:27:27;4.63;;;2.20;;
29384;SDS011;16367;48.736;9.218;2023-04-03T09:29:30;5.95;;;1.92;;
29384;SDS011;16367;48.736;9.218;2023-04-03T09:31:35;6.15;;;2.20;;
29384;SDS011;16367;48.736;9.218;2023-04-03T09:33:42;6.07;;;2.10;;
29384;SDS011;16367;48.736;9.218;2023-04-03T09:35:45;4.65;;;2.03;;
29384;SDS011;16367;48.736;9.218;2023-04-03T09:37:50;4.90;;;1.98;;
29384;SDS011;16367;48.736;9.218;2023-04-03T09:39:54;4.75;;;2.00;;
29384;SDS011;16367;48.736;9.218;2023-04-03T09:41:58;4.50;;;1.83;;
29384;SDS011;16367;48.736;9.218;2023-04-03T09:44:17;5.07;;;2.03;;
29384;SDS011;16367;48.736;9.218;2023-04-03T09:46:28;4.25;;;1.95;;
29384;SDS011;16367;48.736;9.218;2023-04-03T09:48:33;5.47;;;1.90;;
29384;SDS011;16367;48.736;9.218;2023-04-03T09:50:35;6.30;;;2.00;;
29384;SDS011;16367;48.736;9.218;2023-04-03T09:52:39;5.80;;;1.95;;
29384;SDS011;16367;48.736;9.218;2023-04-03T09:54:43;4.90;;;2.00;;
29384;SDS011;16367;48.736;9.218;2023-04-03T09:56:49;5.25;;;2.20;;
29384;SDS011;16367;48.736;9.218;2023-04-03T09:59:07;4.88;;;2.20;;
29384;SDS011;16367;48.736;9.218;2023-04-03T10:01:21;5.38;;;1.83;;
29384;SDS011;16367;48.736;9.218;2023-04-03T10:03:28;8.52;;;1.83;;
29384;SDS011;16367;48.736;9.218;2023-04-03T10:05:36;5.28;;;1.95;;
29384;SDS011;16367;48.736;9.218;2023-04-03T10:07:40;4.20;;;1.88;;
29384;SDS011;16367;48.736;9.218;2023-04-03T10:09:55;4.38;;;1.85;;
29384;SDS011;16367;48.736;9.218;2023-04-03T10:11:59;5.22;;;1.80;;
29384;SDS011;16367;48.736;9.218;2023-04-03T10:14:10;4.22;;;1.75;;
29384;SDS011;16367;48.736;9.218;2023-04-03T10:16:20;5.63;;;1.60;;
29384;SDS011;16367;48.736;9.218;2023-04-03T10:18:28;5.00;;;1.67;;
29384;SDS011;16367;48.736;9.218;2023-04-03T10:20:35;4.55;;;1.90;;
29384;SDS011;16367;48.736;9.218;2023-04-03T10:22:43;6.85;;;2.00;;
29384;SDS011;16367;48.736;9.218;2023-04-03T10:25:00;4.75;;;1.83;;
29384;SDS011;16367;48.736;9.218;2023-04-03T10:27:07;4.55;;;2.00;;
29384;SDS011;16367;48.736;9.218;2023-04-03T10:29:20;4.72;;;2.05;;
29384;SDS011;16367;48.736;9.218;2023-04-03T10:31:31;5.60;;;1.92;;
29384;SDS011;16367;48.736;9.218;2023-04-03T10:33:42;3.83;;;1.45;;
29384;SDS011;16367;48.736;9.218;2023-04-03T10:35:59;4.63;;;1.70;;
29384;SDS011;16367;48.736;9.218;2023-04-03T10:38:13;7.05;;;2.00;;
29384;SDS011;16367;48.736;9.218;2023-04-03T10:40:23;3.90;;;1.65;;
29384;SDS011;16367;48.736;9.218;2023-04-03T10:42:35;4.22;;;1.65;;
29384;SDS011;16367;48.736;9.218;2023-04-03T10:44:46;7.50;;;2.17;;
29384;SDS011;16367;48.736;9.218;2023-04-03T10:46:59;5.80;;;1.90;;
29384;SDS011;16367;48.736;9.218;2023-04-03T10:49:14;4.40;;;1.63;;
29384;SDS011;16367;48.736;9.218;2023-04-03T10:51:28;4.38;;;1.90;;
29384;SDS011;16367;48.736;9.218;2023-04-03T10:53:36;4.72;;;1.70;;
29384;SDS011;16367;48.736;9.218;2023-04-03T10:55:46;4.13;;;1.58;;
29384;SDS011;16367;48.736;9.218;2023-04-03T10:57:56;5.57;;;1.70;;
29384;SDS011;16367;48.736;9.218;2023-04-03T11:00:03;4.00;;;1.70;;
29384;SDS011;16367;48.736;9.218;2023-04-03T11:02:12;5.85;;;1.92;;
29384;SDS011;16367;48.736;9.218;2023-04-03T11:04:20;5.75;;;2.45;;
29384;SDS011;16367;48.736;9.218;2023-04-03T11:06:26;4.13;;;1.42;;
29384;SDS011;16367;48.736;9.218;2023-04-03T11:10:45;6.88;;;1.65;;
29384;SDS011;16367;48.736;9.218;2023-04-03T11:12:52;4.40;;;1.63;;
29384;SDS011;16367;48.736;9.218;2023-04-03T11:15:00;4.65;;;1.58;;
29384;SDS011;16367;48.736;9.218;2023-04-03T11:17:11;4.13;;;1.40;;
29384;SDS011;16367;48.736;9.218;2023-04-03T11:19:26;5.80;;;1.73;;
29384;SDS011;16367;48.736;9.218;2023-04-03T11:21:37;4.18;;;1.63;;
29384;SDS011;16367;48.736;9.218;2023-04-03T11:23:45;7.85;;;1.83;;
29384;SDS011;16367;48.736;9.218;2023-04-03T11:25:51;4.90;;;1.98;;
29384;SDS011;16367;48.736;9.218;2023-04-03T11:27:57;4.65;;;1.45;;
29384;SDS011;16367;48.736;9.218;2023-04-03T11:30:00;5.05;;;1.75;;
29384;SDS011;16367;48.736;9.218;2023-04-03T11:32:18;4.50;;;1.60;;
29384;SDS011;16367;48.736;9.218;2023-04-03T11:34:35;5.07;;;1.45;;
29384;SDS011;16367;48.736;9.218;2023-04-03T11:36:42;3.92;;;1.48;;
29384;SDS011;16367;48.736;9.218;2023-04-03T11:38:49;5.78;;;1.63;;
29384;SDS011;16367;48.736;9.218;2023-04-03T11:40:57;7.75;;;2.00;;
29384;SDS011;16367;48.736;9.218;2023-04-03T11:43:03;6.28;;;1.70;;
29384;SDS011;16367;48.736;9.218;2023-04-03T11:45:17;3.38;;;1.30;;
29384;SDS011;16367;48.736;9.218;2023-04-03T11:47:46;3.92;;;1.27;;
29384;SDS011;16367;48.736;9.218;2023-04-03T11:49:57;5.43;;;1.33;;
29384;SDS011;16367;48.736;9.218;2023-04-03T11:52:02;5.95;;;1.38;;
29384;SDS011;16367;48.736;9.218;2023-04-03T11:56:45;3.53;;;1.38;;
29384;SDS011;16367;48.736;9.218;2023-04-03T12:08:56;4.13;;;1.27;;
29384;SDS011;16367;48.736;9.218;2023-04-03T12:11:14;3.40;;;1.30;;
29384;SDS011;16367;48.736;9.218;2023-04-03T12:13:25;5.22;;;1.60;;
29384;SDS011;16367;48.736;9.218;2023-04-03T12:18:00;6.25;;;1.48;;
29384;SDS011;16367;48.736;9.218;2023-04-03T12:20:53;5.10;;;1.80;;
29384;SDS011;16367;48.736;9.218;2023-04-03T12:23:22;4.78;;;1.90;;
29384;SDS011;16367;48.736;9.218;2023-04-03T12:25:47;4.97;;;1.55;;
29384;SDS011;16367;48.736;9.218;2023-04-03T12:29:58;4.97;;;1.42;;
29384;SDS011;16367;48.736;9.218;2023-04-03T12:32:06;3.42;;;1.23;;
29384;SDS011;16367;48.736;9.218;2023-04-03T12:34:21;4.13;;;1.35;;
29384;SDS011;16367;48.736;9.218;2023-04-03T12:36:35;4.40;;;1.33;;
29384;SDS011;16367;48.736;9.218;2023-04-03T12:38:53;5.07;;;1.50;;
29384;SDS011;16367;48.736;9.218;2023-04-03T12:41:11;4.20;;;1.70;;
29384;SDS011;16367;48.736;9.218;2023-04-03T12:43:25;4.57;;;1.40;;
29384;SDS011;16367;48.736;9.218;2023-04-03T12:45:40;4.35;;;1.40;;
29384;SDS011;16367;48.736;9.218;2023-04-03T12:47:46;5.18;;;1.60;;
29384;SDS011;16367;48.736;9.218;2023-04-03T12:49:52;4.72;;;1.40;;
29384;SDS011;16367;48.736;9.218;2023-04-03T12:51:56;3.63;;;1.30;;
29384;SDS011;16367;48.736;9.218;2023-04-03T12:54:00;4.15;;;1.58;;
29384;SDS011;16367;48.736;9.218;2023-04-03T12:56:18;4.30;;;1.30;;